sensor_id;sensor_type;location;lat;lon;timestamp;pressure;altitude;pressure_sealevel;temperature;humidity
19576;BME280;41589;51.196;7.074;2024-03-08T00:03:29;99091.69;;;6.56;45.90
19576;BME280;41589;51.196;7.074;2024-03-08T00:08:31;99084.00;;;6.44;46.37
19576;BME280;41589;51.196;7.074;2024-03-08T00:13:31;99074.97;;;6.53;46.62
19576;BME280;41589;51.196;7.074;2024-03-08T00:18:31;99078.41;;;6.60;46.41
19576;BME280;41589;51.196;7.074;2024-03-08T00:23:32;99068.16;;;6.54;46.36
19576;BME280;41589;51.196;7.074;2024-03-08T00:28:33;99055.06;;;6.51;46.60
19576;BME280;41589;51.196;7.074;2024-03-08T00:33:35;99067.84;;;6.32;46.40
19576;BME280;41589;51.196;7.074;2024-03-08T00:38:36;99063.81;;;6.36;46.79
19576;BME280;41589;51.196;7.074;2024-03-08T00:43:37;99064.25;;;6.35;46.57
19576;BME280;41589;51.196;7.074;2024-03-08T00:48:37;99053.75;;;6.39;47.13
19576;BME280;41589;51.196;7.074;2024-03-08T00:53:37;99046.94;;;6.40;47.15
19576;BME280;41589;51.196;7.074;2024-03-08T00:58:38;99047.38;;;6.38;46.64
19576;BME280;41589;51.196;7.074;2024-03-08T01:03:38;99039.88;;;6.35;46.77
19576;BME280;41589;51.196;7.074;2024-03-08T01:08:38;99030.47;;;6.26;46.61
19576;BME280;41589;51.196;7.074;2024-03-08T01:13:42;99026.91;;;6.25;46.91
19576;BME280;41589;51.196;7.074;2024-03-08T01:18:43;99025.22;;;6.28;46.86
19576;BME280;41589;51.196;7.074;2024-03-08T01:23:44;99021.31;;;6.25;46.69
19576;BME280;41589;51.196;7.074;2024-03-08T01:28:44;99003.31;;;6.26;47.03
19576;BME280;41589;51.196;7.074;2024-03-08T01:33:44;99008.28;;;6.19;47.18
19576;BME280;41589;51.196;7.074;2024-03-08T01:38:45;99004.53;;;6.25;46.80
19576;BME280;41589;51.196;7.074;2024-03-08T01:43:46;98995.88;;;6.20;47.11
19576;BME280;41589;51.196;7.074;2024-03-08T01:48:46;98984.06;;;6.12;46.82
19576;BME280;41589;51.196;7.074;2024-03-08T01:53:47;98984.59;;;6.07;47.08
19576;BME280;41589;51.196;7.074;2024-03-08T01:58:48;98976.56;;;6.09;47.07
19576;BME280;41589;51.196;7.074;2024-03-08T02:03:49;98975.44;;;6.06;47.30
19576;BME280;41589;51.196;7.074;2024-03-08T02:08:49;98970.44;;;5.98;47.32
19576;BME280;41589;51.196;7.074;2024-03-08T02:13:50;98962.59;;;6.09;47.56
19576;BME280;41589;51.196;7.074;2024-03-08T02:18:50;98966.97;;;6.10;47.19
19576;BME280;41589;51.196;7.074;2024-03-08T02:23:50;98966.16;;;6.09;47.13
19576;BME280;41589;51.196;7.074;2024-03-08T02:28:52;98948.38;;;6.03;47.14
19576;BME280;41589;51.196;7.074;2024-03-08T02:33:52;98951.06;;;6.07;47.46
19576;BME280;41589;51.196;7.074;2024-03-08T02:38:53;98958.56;;;6.10;46.90
19576;BME280;41589;51.196;7.074;2024-03-08T02:43:55;98948.38;;;6.03;47.22
19576;BME280;41589;51.196;7.074;2024-03-08T02:48:56;98936.66;;;6.08;47.34
19576;BME280;41589;51.196;7.074;2024-03-08T02:53:56;98930.72;;;6.06;47.06
19576;BME280;41589;51.196;7.074;2024-03-08T02:58:57;98932.91;;;5.99;47.11
19576;BME280;41589;51.196;7.074;2024-03-08T03:03:57;98921.72;;;5.99;46.92
19576;BME280;41589;51.196;7.074;2024-03-08T03:08:58;98919.03;;;5.95;47.24
19576;BME280;41589;51.196;7.074;2024-03-08T03:13:58;98915.44;;;5.95;47.20
19576;BME280;41589;51.196;7.074;2024-03-08T03:18:58;98907.56;;;5.90;47.39
19576;BME280;41589;51.196;7.074;2024-03-08T03:24:01;98903.31;;;5.85;47.13
19576;BME280;41589;51.196;7.074;2024-03-08T03:29:02;98900.06;;;5.87;47.11
19576;BME280;41589;51.196;7.074;2024-03-08T03:34:03;98901.91;;;5.93;47.16
19576;BME280;41589;51.196;7.074;2024-03-08T03:39:04;98887.41;;;5.98;47.03
19576;BME280;41589;51.196;7.074;2024-03-08T03:44:16;98894.66;;;5.96;47.13
19576;BME280;41589;51.196;7.074;2024-03-08T03:49:16;98885.75;;;5.85;47.13
19576;BME280;41589;51.196;7.074;2024-03-08T03:54:17;98893.00;;;5.98;47.46
19576;BME280;41589;51.196;7.074;2024-03-08T03:59:17;98896.91;;;6.01;47.31
19576;BME280;41589;51.196;7.074;2024-03-08T04:04:18;98882.59;;;5.99;47.34
19576;BME280;41589;51.196;7.074;2024-03-08T04:09:19;98885.50;;;5.95;46.95
19576;BME280;41589;51.196;7.074;2024-03-08T04:14:19;98884.78;;;5.91;47.24
19576;BME280;41589;51.196;7.074;2024-03-08T04:19:19;98878.06;;;5.89;47.51
19576;BME280;41589;51.196;7.074;2024-03-08T04:24:20;98874.78;;;5.94;47.38
19576;BME280;41589;51.196;7.074;2024-03-08T04:29:20;98876.41;;;5.91;47.35
19576;BME280;41589;51.196;7.074;2024-03-08T04:34:22;98871.97;;;5.94;47.34
19576;BME280;41589;51.196;7.074;2024-03-08T04:39:22;98869.50;;;5.79;47.32
19576;BME280;41589;51.196;7.074;2024-03-08T04:44:23;98867.16;;;5.78;47.45
19576;BME280;41589;51.196;7.074;2024-03-08T04:49:24;98851.28;;;5.75;47.94
19576;BME280;41589;51.196;7.074;2024-03-08T04:54:25;98861.22;;;5.76;47.53
19576;BME280;41589;51.196;7.074;2024-03-08T04:59:26;98847.78;;;5.71;47.61
19576;BME280;41589;51.196;7.074;2024-03-08T05:04:27;98846.41;;;5.63;47.83
19576;BME280;41589;51.196;7.074;2024-03-08T05:09:29;98843.84;;;5.68;48.09
19576;BME280;41589;51.196;7.074;2024-03-08T05:14:31;98852.50;;;5.74;47.91
19576;BME280;41589;51.196;7.074;2024-03-08T05:19:32;98836.59;;;5.71;48.37
19576;BME280;41589;51.196;7.074;2024-03-08T05:24:32;98832.44;;;5.63;47.99
19576;BME280;41589;51.196;7.074;2024-03-08T05:29:33;98827.31;;;5.61;48.13
19576;BME280;41589;51.196;7.074;2024-03-08T05:34:33;98826.84;;;5.63;48.46
19576;BME280;41589;51.196;7.074;2024-03-08T05:39:33;98818.09;;;5.61;48.10
19576;BME280;41589;51.196;7.074;2024-03-08T05:44:34;98825.97;;;5.66;48.39
19576;BME280;41589;51.196;7.074;2024-03-08T05:49:34;98820.50;;;5.62;48.47
19576;BME280;41589;51.196;7.074;2024-03-08T05:54:34;98817.31;;;5.60;48.73
19576;BME280;41589;51.196;7.074;2024-03-08T05:59:35;98819.69;;;5.62;48.89
19576;BME280;41589;51.196;7.074;2024-03-08T06:04:36;98813.13;;;5.68;49.00
19576;BME280;41589;51.196;7.074;2024-03-08T06:09:36;98806.94;;;5.77;48.59
19576;BME280;41589;51.196;7.074;2024-03-08T06:14:37;98809.06;;;5.73;48.53
19576;BME280;41589;51.196;7.074;2024-03-08T06:19:38;98809.91;;;5.70;48.74
19576;BME280;41589;51.196;7.074;2024-03-08T06:24:38;98803.81;;;5.75;48.67
19576;BME280;41589;51.196;7.074;2024-03-08T06:29:38;98799.63;;;5.83;48.42
19576;BME280;41589;51.196;7.074;2024-03-08T06:34:39;98802.59;;;5.76;49.18
19576;BME280;41589;51.196;7.074;2024-03-08T06:39:39;98801.47;;;5.73;49.25
19576;BME280;41589;51.196;7.074;2024-03-08T06:44:40;98797.06;;;5.89;49.42
19576;BME280;41589;51.196;7.074;2024-03-08T06:49:48;98800.84;;;5.82;49.20
19576;BME280;41589;51.196;7.074;2024-03-08T06:54:49;98792.06;;;5.96;49.46
19576;BME280;41589;51.196;7.074;2024-03-08T06:59:50;98798.00;;;5.98;49.15
19576;BME280;41589;51.196;7.074;2024-03-08T07:04:52;98794.75;;;6.00;49.28
19576;BME280;41589;51.196;7.074;2024-03-08T07:09:53;98788.03;;;6.14;49.67
19576;BME280;41589;51.196;7.074;2024-03-08T07:14:55;98789.94;;;6.17;49.42
19576;BME280;41589;51.196;7.074;2024-03-08T07:19:55;98789.50;;;6.18;49.57
19576;BME280;41589;51.196;7.074;2024-03-08T07:24:57;98790.16;;;6.22;49.63
19576;BME280;41589;51.196;7.074;2024-03-08T07:30:16;98792.06;;;6.42;49.74
19576;BME280;41589;51.196;7.074;2024-03-08T07:35:35;98772.66;;;6.63;49.90
19576;BME280;41589;51.196;7.074;2024-03-08T07:40:38;98766.84;;;6.71;49.49
19576;BME280;41589;51.196;7.074;2024-03-08T07:45:40;98768.66;;;7.03;49.74
19576;BME280;41589;51.196;7.074;2024-03-08T07:50:41;98752.22;;;7.30;49.26
19576;BME280;41589;51.196;7.074;2024-03-08T07:55:42;98761.25;;;7.47;49.16
19576;BME280;41589;51.196;7.074;2024-03-08T08:00:43;98739.56;;;7.73;49.35
19576;BME280;41589;51.196;7.074;2024-03-08T08:05:44;98734.72;;;8.08;49.18
19576;BME280;41589;51.196;7.074;2024-03-08T08:10:44;98731.84;;;8.33;48.81
19576;BME280;41589;51.196;7.074;2024-03-08T08:15:44;98731.69;;;8.37;47.71
19576;BME280;41589;51.196;7.074;2024-03-08T08:20:45;98720.78;;;8.61;47.80
19576;BME280;41589;51.196;7.074;2024-03-08T08:25:46;98709.06;;;8.84;47.40
19576;BME280;41589;51.196;7.074;2024-03-08T08:30:50;98708.22;;;9.06;47.23
19576;BME280;41589;51.196;7.074;2024-03-08T08:35:50;98702.81;;;9.30;46.67
19576;BME280;41589;51.196;7.074;2024-03-08T08:40:53;98691.59;;;9.30;46.18
19576;BME280;41589;51.196;7.074;2024-03-08T08:45:54;98682.06;;;9.45;46.59
19576;BME280;41589;51.196;7.074;2024-03-08T08:50:55;98670.41;;;9.74;46.15
19576;BME280;41589;51.196;7.074;2024-03-08T08:55:56;98673.41;;;9.89;45.57
19576;BME280;41589;51.196;7.074;2024-03-08T09:00:56;98667.75;;;10.07;45.58
19576;BME280;41589;51.196;7.074;2024-03-08T09:05:57;98663.69;;;10.18;44.76
19576;BME280;41589;51.196;7.074;2024-03-08T09:10:57;98656.03;;;10.18;44.39
19576;BME280;41589;51.196;7.074;2024-03-08T09:16:00;98655.53;;;10.29;44.38
19576;BME280;41589;51.196;7.074;2024-03-08T09:21:00;98646.56;;;10.49;44.00
19576;BME280;41589;51.196;7.074;2024-03-08T09:26:00;98640.44;;;10.59;43.85
19576;BME280;41589;51.196;7.074;2024-03-08T09:31:01;98630.09;;;10.65;43.53
19576;BME280;41589;51.196;7.074;2024-03-08T09:36:02;98627.09;;;10.69;42.91
19576;BME280;41589;51.196;7.074;2024-03-08T09:41:04;98626.69;;;10.61;42.79
19576;BME280;41589;51.196;7.074;2024-03-08T09:46:04;98620.38;;;10.76;42.80
19576;BME280;41589;51.196;7.074;2024-03-08T09:51:07;98609.13;;;10.99;42.85
19576;BME280;41589;51.196;7.074;2024-03-08T09:56:08;98603.38;;;11.18;42.75
19576;BME280;41589;51.196;7.074;2024-03-08T10:01:08;98603.09;;;11.40;42.59
19576;BME280;41589;51.196;7.074;2024-03-08T10:06:08;98576.56;;;11.70;41.78
19576;BME280;41589;51.196;7.074;2024-03-08T10:11:10;98580.47;;;11.88;41.47
19576;BME280;41589;51.196;7.074;2024-03-08T10:16:12;98570.75;;;12.03;41.48
19576;BME280;41589;51.196;7.074;2024-03-08T10:21:12;98570.75;;;12.18;39.92
19576;BME280;41589;51.196;7.074;2024-03-08T10:26:14;98572.00;;;12.47;39.92
19576;BME280;41589;51.196;7.074;2024-03-08T10:31:19;98556.53;;;12.77;39.13
19576;BME280;41589;51.196;7.074;2024-03-08T10:36:19;98559.00;;;13.05;38.40
19576;BME280;41589;51.196;7.074;2024-03-08T10:41:21;98546.56;;;13.17;38.12
19576;BME280;41589;51.196;7.074;2024-03-08T10:46:30;98545.03;;;13.42;37.62
19576;BME280;41589;51.196;7.074;2024-03-08T10:51:31;98543.31;;;13.44;37.38
19576;BME280;41589;51.196;7.074;2024-03-08T10:56:32;98525.06;;;13.66;37.36
19576;BME280;41589;51.196;7.074;2024-03-08T11:01:33;98515.84;;;13.97;36.65
19576;BME280;41589;51.196;7.074;2024-03-08T11:11:37;98500.09;;;14.59;35.84
19576;BME280;41589;51.196;7.074;2024-03-08T11:16:38;98497.63;;;14.78;35.08
19576;BME280;41589;51.196;7.074;2024-03-08T11:21:43;98492.09;;;15.00;35.50
19576;BME280;41589;51.196;7.074;2024-03-08T11:26:45;98479.13;;;15.42;35.35
19576;BME280;41589;51.196;7.074;2024-03-08T11:31:46;98470.09;;;15.60;34.45
19576;BME280;41589;51.196;7.074;2024-03-08T11:36:53;98459.06;;;15.79;34.57
19576;BME280;41589;51.196;7.074;2024-03-08T11:41:56;98464.75;;;16.01;33.89
19576;BME280;41589;51.196;7.074;2024-03-08T11:46:57;98454.19;;;16.02;33.39
19576;BME280;41589;51.196;7.074;2024-03-08T11:51:57;98434.81;;;16.28;33.61
19576;BME280;41589;51.196;7.074;2024-03-08T11:56:57;98443.31;;;16.45;33.54
19576;BME280;41589;51.196;7.074;2024-03-08T12:02:05;98438.63;;;16.59;32.76
19576;BME280;41589;51.196;7.074;2024-03-08T12:07:09;98424.41;;;16.70;32.08
19576;BME280;41589;51.196;7.074;2024-03-08T12:12:12;98425.16;;;16.76;31.98
19576;BME280;41589;51.196;7.074;2024-03-08T12:17:12;98420.47;;;16.84;31.56
19576;BME280;41589;51.196;7.074;2024-03-08T12:22:14;98411.69;;;16.88;31.38
19576;BME280;41589;51.196;7.074;2024-03-08T12:27:19;98403.88;;;16.94;31.37
19576;BME280;41589;51.196;7.074;2024-03-08T12:32:20;98395.03;;;17.09;31.61
19576;BME280;41589;51.196;7.074;2024-03-08T12:37:23;98388.53;;;17.19;30.89
19576;BME280;41589;51.196;7.074;2024-03-08T12:42:23;98367.84;;;17.19;31.75
19576;BME280;41589;51.196;7.074;2024-03-08T12:47:24;98361.00;;;17.39;30.72
19576;BME280;41589;51.196;7.074;2024-03-08T12:52:24;98365.78;;;17.19;30.65
19576;BME280;41589;51.196;7.074;2024-03-08T12:57:25;98365.84;;;17.02;31.02
19576;BME280;41589;51.196;7.074;2024-03-08T13:02:28;98346.41;;;17.12;30.43
19576;BME280;41589;51.196;7.074;2024-03-08T13:07:28;98345.16;;;17.08;30.03
19576;BME280;41589;51.196;7.074;2024-03-08T13:12:29;98334.91;;;16.93;30.03
19576;BME280;41589;51.196;7.074;2024-03-08T13:17:29;98335.97;;;16.85;30.39
19576;BME280;41589;51.196;7.074;2024-03-08T13:22:29;98335.09;;;16.49;29.52
19576;BME280;41589;51.196;7.074;2024-03-08T13:27:30;98316.31;;;16.23;30.02
19576;BME280;41589;51.196;7.074;2024-03-08T13:32:30;98317.69;;;16.00;30.56
19576;BME280;41589;51.196;7.074;2024-03-08T13:37:31;98304.81;;;15.93;30.56
19576;BME280;41589;51.196;7.074;2024-03-08T13:42:33;98301.97;;;15.82;30.33
19576;BME280;41589;51.196;7.074;2024-03-08T13:47:33;98295.78;;;15.61;31.08
19576;BME280;41589;51.196;7.074;2024-03-08T13:52:34;98294.03;;;15.41;30.20
19576;BME280;41589;51.196;7.074;2024-03-08T13:57:34;98277.50;;;15.34;30.88
19576;BME280;41589;51.196;7.074;2024-03-08T14:02:35;98273.91;;;15.28;31.22
19576;BME280;41589;51.196;7.074;2024-03-08T14:07:35;98261.00;;;15.16;31.47
19576;BME280;41589;51.196;7.074;2024-03-08T14:12:36;98247.38;;;15.03;31.17
19576;BME280;41589;51.196;7.074;2024-03-08T14:17:38;98256.88;;;14.83;31.47
19576;BME280;41589;51.196;7.074;2024-03-08T14:22:38;98248.13;;;14.81;31.99
19576;BME280;41589;51.196;7.074;2024-03-08T14:27:39;98238.53;;;14.62;31.80
19576;BME280;41589;51.196;7.074;2024-03-08T14:32:40;98222.56;;;14.64;31.88
19576;BME280;41589;51.196;7.074;2024-03-08T14:37:41;98222.28;;;14.51;32.07
19576;BME280;41589;51.196;7.074;2024-03-08T14:42:43;98227.66;;;14.43;32.08
19576;BME280;41589;51.196;7.074;2024-03-08T14:47:49;98221.97;;;14.27;32.41
19576;BME280;41589;51.196;7.074;2024-03-08T14:52:50;98201.91;;;14.30;32.95
19576;BME280;41589;51.196;7.074;2024-03-08T14:57:51;98198.50;;;14.15;32.79
19576;BME280;41589;51.196;7.074;2024-03-08T15:02:55;98191.75;;;13.96;32.82
19576;BME280;41589;51.196;7.074;2024-03-08T15:07:56;98177.06;;;13.86;33.12
19576;BME280;41589;51.196;7.074;2024-03-08T15:12:57;98175.47;;;13.74;33.01
19576;BME280;41589;51.196;7.074;2024-03-08T15:17:59;98162.97;;;13.49;33.14
19576;BME280;41589;51.196;7.074;2024-03-08T15:23:00;98159.09;;;13.46;33.50
19576;BME280;41589;51.196;7.074;2024-03-08T15:28:00;98157.25;;;13.32;33.32
19576;BME280;41589;51.196;7.074;2024-03-08T15:33:04;98153.03;;;13.16;33.78
19576;BME280;41589;51.196;7.074;2024-03-08T15:38:04;98149.34;;;13.05;34.17
19576;BME280;41589;51.196;7.074;2024-03-08T15:43:05;98146.97;;;12.97;33.67
19576;BME280;41589;51.196;7.074;2024-03-08T15:48:05;98137.50;;;13.00;34.20
19576;BME280;41589;51.196;7.074;2024-03-08T15:53:06;98138.75;;;12.94;34.79
19576;BME280;41589;51.196;7.074;2024-03-08T15:58:06;98149.63;;;12.75;34.73
19576;BME280;41589;51.196;7.074;2024-03-08T16:03:07;98139.72;;;12.54;34.90
19576;BME280;41589;51.196;7.074;2024-03-08T16:08:12;98134.50;;;12.47;34.95
19576;BME280;41589;51.196;7.074;2024-03-08T16:13:15;98134.59;;;12.58;34.85
19576;BME280;41589;51.196;7.074;2024-03-08T16:18:17;98132.59;;;12.64;34.78
19576;BME280;41589;51.196;7.074;2024-03-08T16:23:22;98129.00;;;12.63;34.98
19576;BME280;41589;51.196;7.074;2024-03-08T16:28:23;98126.97;;;12.64;35.29
19576;BME280;41589;51.196;7.074;2024-03-08T16:33:25;98112.13;;;12.43;35.31
19576;BME280;41589;51.196;7.074;2024-03-08T16:38:26;98104.09;;;12.36;35.49
19576;BME280;41589;51.196;7.074;2024-03-08T16:43:26;98105.38;;;12.35;35.53
19576;BME280;41589;51.196;7.074;2024-03-08T16:48:26;98111.50;;;12.28;35.65
19576;BME280;41589;51.196;7.074;2024-03-08T16:53:27;98105.00;;;12.22;36.07
19576;BME280;41589;51.196;7.074;2024-03-08T16:58:27;98112.31;;;12.34;37.13
19576;BME280;41589;51.196;7.074;2024-03-08T17:03:28;98108.75;;;12.65;36.48
19576;BME280;41589;51.196;7.074;2024-03-08T17:08:28;98100.34;;;12.76;36.40
19576;BME280;41589;51.196;7.074;2024-03-08T17:13:30;98093.31;;;12.97;36.24
19576;BME280;41589;51.196;7.074;2024-03-08T17:18:32;98098.22;;;12.65;36.09
19576;BME280;41589;51.196;7.074;2024-03-08T17:23:33;98087.66;;;12.97;36.36
19576;BME280;41589;51.196;7.074;2024-03-08T17:28:34;98098.25;;;13.02;35.71
19576;BME280;41589;51.196;7.074;2024-03-08T17:33:40;98096.53;;;12.79;35.70
19576;BME280;41589;51.196;7.074;2024-03-08T17:38:45;98102.91;;;12.42;35.99
19576;BME280;41589;51.196;7.074;2024-03-08T17:43:47;98104.78;;;12.51;35.99
19576;BME280;41589;51.196;7.074;2024-03-08T17:48:48;98105.63;;;12.31;36.23
19576;BME280;41589;51.196;7.074;2024-03-08T17:53:48;98104.41;;;12.12;36.49
19576;BME280;41589;51.196;7.074;2024-03-08T17:58:51;98111.38;;;11.91;36.51
19576;BME280;41589;51.196;7.074;2024-03-08T18:03:51;98110.09;;;11.92;36.69
19576;BME280;41589;51.196;7.074;2024-03-08T18:08:52;98100.41;;;11.72;37.09
19576;BME280;41589;51.196;7.074;2024-03-08T18:13:53;98099.13;;;11.53;37.52
19576;BME280;41589;51.196;7.074;2024-03-08T18:18:53;98091.13;;;11.46;37.26
19576;BME280;41589;51.196;7.074;2024-03-08T18:23:54;98097.19;;;11.39;37.87
19576;BME280;41589;51.196;7.074;2024-03-08T18:28:55;98090.41;;;11.31;37.68
19576;BME280;41589;51.196;7.074;2024-03-08T18:33:56;98082.69;;;11.25;37.82
19576;BME280;41589;51.196;7.074;2024-03-08T18:39:02;98077.78;;;11.06;37.99
19576;BME280;41589;51.196;7.074;2024-03-08T18:44:10;98077.34;;;10.92;38.41
19576;BME280;41589;51.196;7.074;2024-03-08T18:49:10;98087.13;;;10.97;38.47
19576;BME280;41589;51.196;7.074;2024-03-08T18:54:11;98065.63;;;10.79;38.61
19576;BME280;41589;51.196;7.074;2024-03-08T18:59:12;98061.75;;;10.77;38.58
19576;BME280;41589;51.196;7.074;2024-03-08T19:04:13;98063.25;;;10.57;39.13
19576;BME280;41589;51.196;7.074;2024-03-08T19:09:14;98060.53;;;10.63;39.34
19576;BME280;41589;51.196;7.074;2024-03-08T19:14:15;98048.63;;;10.53;39.27
19576;BME280;41589;51.196;7.074;2024-03-08T19:19:18;98046.75;;;10.50;39.29
19576;BME280;41589;51.196;7.074;2024-03-08T19:24:21;98044.94;;;10.47;39.42
19576;BME280;41589;51.196;7.074;2024-03-08T19:29:21;98042.44;;;10.34;39.33
19576;BME280;41589;51.196;7.074;2024-03-08T19:34:25;98029.75;;;10.24;39.66
19576;BME280;41589;51.196;7.074;2024-03-08T19:39:26;98030.81;;;10.27;39.95
19576;BME280;41589;51.196;7.074;2024-03-08T19:44:27;98018.88;;;10.17;40.22
19576;BME280;41589;51.196;7.074;2024-03-08T19:49:28;98020.34;;;10.12;40.14
19576;BME280;41589;51.196;7.074;2024-03-08T19:54:28;98015.41;;;10.07;40.06
19576;BME280;41589;51.196;7.074;2024-03-08T19:59:29;98007.75;;;9.93;40.54
19576;BME280;41589;51.196;7.074;2024-03-08T20:04:30;98007.56;;;9.82;40.76
19576;BME280;41589;51.196;7.074;2024-03-08T20:09:31;97998.94;;;9.85;40.83
19576;BME280;41589;51.196;7.074;2024-03-08T20:14:32;97990.97;;;9.69;40.60
19576;BME280;41589;51.196;7.074;2024-03-08T20:19:35;97986.19;;;9.46;40.92
19576;BME280;41589;51.196;7.074;2024-03-08T20:24:36;97981.75;;;9.39;40.92
19576;BME280;41589;51.196;7.074;2024-03-08T20:29:38;97979.53;;;9.43;40.93
19576;BME280;41589;51.196;7.074;2024-03-08T20:34:41;97976.41;;;9.41;41.51
19576;BME280;41589;51.196;7.074;2024-03-08T20:39:41;97964.28;;;9.35;41.38
19576;BME280;41589;51.196;7.074;2024-03-08T20:44:43;97956.34;;;9.34;41.81
19576;BME280;41589;51.196;7.074;2024-03-08T20:49:43;97949.78;;;9.37;41.72
19576;BME280;41589;51.196;7.074;2024-03-08T20:54:43;97947.16;;;9.33;42.09
19576;BME280;41589;51.196;7.074;2024-03-08T20:59:44;97949.59;;;9.25;42.20
19576;BME280;41589;51.196;7.074;2024-03-08T21:04:45;97943.50;;;9.27;42.30
19576;BME280;41589;51.196;7.074;2024-03-08T21:09:48;97940.84;;;9.23;42.57
19576;BME280;41589;51.196;7.074;2024-03-08T21:14:51;97941.81;;;9.20;42.84
19576;BME280;41589;51.196;7.074;2024-03-08T21:19:52;97949.28;;;9.23;42.61
19576;BME280;41589;51.196;7.074;2024-03-08T21:24:52;97943.84;;;9.20;42.94
19576;BME280;41589;51.196;7.074;2024-03-08T21:29:53;97945.59;;;9.17;43.05
19576;BME280;41589;51.196;7.074;2024-03-08T21:34:53;97952.00;;;9.18;43.34
19576;BME280;41589;51.196;7.074;2024-03-08T21:39:55;97949.75;;;9.22;42.88
19576;BME280;41589;51.196;7.074;2024-03-08T21:44:56;97952.84;;;9.24;42.87
19576;BME280;41589;51.196;7.074;2024-03-08T21:49:57;97949.75;;;9.22;43.25
19576;BME280;41589;51.196;7.074;2024-03-08T21:54:57;97943.28;;;9.16;43.37
19576;BME280;41589;51.196;7.074;2024-03-08T21:59:58;97938.53;;;9.22;43.47
19576;BME280;41589;51.196;7.074;2024-03-08T22:04:58;97943.56;;;9.18;43.15
19576;BME280;41589;51.196;7.074;2024-03-08T22:09:58;97949.97;;;9.18;42.91
19576;BME280;41589;51.196;7.074;2024-03-08T22:15:00;97950.38;;;9.26;43.18
19576;BME280;41589;51.196;7.074;2024-03-08T22:20:00;97944.91;;;9.22;43.56
19576;BME280;41589;51.196;7.074;2024-03-08T22:25:07;97932.53;;;9.29;43.23
19576;BME280;41589;51.196;7.074;2024-03-08T22:30:11;97929.72;;;9.29;43.28
19576;BME280;41589;51.196;7.074;2024-03-08T22:35:13;97933.19;;;9.24;43.43
19576;BME280;41589;51.196;7.074;2024-03-08T22:40:14;97926.81;;;9.23;43.70
19576;BME280;41589;51.196;7.074;2024-03-08T22:45:15;97930.88;;;9.22;43.35
19576;BME280;41589;51.196;7.074;2024-03-08T22:50:17;97923.34;;;9.28;43.33
19576;BME280;41589;51.196;7.074;2024-03-08T22:55:17;97917.63;;;9.23;43.34
19576;BME280;41589;51.196;7.074;2024-03-08T23:00:21;97914.53;;;9.21;43.56
19576;BME280;41589;51.196;7.074;2024-03-08T23:05:24;97911.44;;;9.19;43.63
19576;BME280;41589;51.196;7.074;2024-03-08T23:10:27;97905.72;;;9.28;43.58
19576;BME280;41589;51.196;7.074;2024-03-08T23:15:27;97893.13;;;9.23;44.05
19576;BME280;41589;51.196;7.074;2024-03-08T23:20:28;97893.41;;;9.11;43.70
19576;BME280;41589;51.196;7.074;2024-03-08T23:25:31;97893.78;;;9.04;43.97
19576;BME280;41589;51.196;7.074;2024-03-08T23:30:32;97886.31;;;9.01;43.95
19576;BME280;41589;51.196;7.074;2024-03-08T23:35:35;97895.72;;;8.97;44.02
19576;BME280;41589;51.196;7.074;2024-03-08T23:40:36;97897.75;;;8.97;44.27
19576;BME280;41589;51.196;7.074;2024-03-08T23:45:37;97878.50;;;9.05;44.40
19576;BME280;41589;51.196;7.074;2024-03-08T23:50:38;97881.78;;;9.03;44.07
19576;BME280;41589;51.196;7.074;2024-03-08T23:55:38;97878.88;;;8.97;44.29
